Malaga, Spain

1:42 AM CET on February 13, 2016 (GMT +0100)
IALALHAU2 | | Change Station
CLOSE
Current Station
Personal Weather Station
Location: Alhaurin De La Torre, Malaga
Elevation: 360 ft
Nearby Weather Stations

Elev 360 ft 36.66 °N, 4.55 °W | Updated 16 seconds ago

Scattered Clouds
Scattered Clouds
64.6 °F
Feels Like 64.6 °F
N
6.0
Wind Variable Wind from SW
Gusts 10.1 mph

Today
High -- | Low -- °F
--% Chance of Precip.
Yesterday
High -- | Low -- °F
Precip. -- in
Pressure 30.04 in
Visibility 6.2 miles
Clouds Few 3000 ft
Scattered Clouds 4000 ft
Dew Point 50 °F
Humidity 59%
Rainfall Not available.
Snow Depth Not available.
8:09 AM 6:55 PM
Waxing Crescent, 25% visible
METAR LEMG 130030Z 29009KT 260V320 9999 FEW030 SCT040 18/13 Q1017 NOSIG
Pressure 30.04 in
Visibility 6.2 miles
Clouds Few 3000 ft
Scattered Clouds 4000 ft
Dew Point 50 °F
Humidity 59%
Rainfall Not available.
Snow Depth Not available.
8:09 AM 6:55 PM
Waxing Crescent, 25% visible
METAR LEMG 130030Z 29009KT 260V320 9999 FEW030 SCT040 18/13 Q1017 NOSIG

10-Day Weather Forecast

Almanac

Astronomy

Feb. 13, 2016 Rise Set
Actual Time
Civil Twilight
Nautical Twilight
Astronomical Twilight
Moon
Length of Visible Light
Length of Day
Tomorrow will be .
, % of the Moon is Illuminated

Today's Extremes

Country Highs Country Lows

Community

WunderPhotos

Upload Photos

1,892,444 photos uploaded!

WunderBlog® & News

Nearby

Air Quality

  Air Quality AQ Index Pollutant
Not available.

Snow Depth

Station Depth Elevation

Earthquake Activity

City Distance Mag. Time & Date
Minimum magnitude displayed is 2.5.

Coastal Water Temperatures

Place Temperature

Stations

Nearby Weather Stations

Station Location Temp. Windchill Dew Point Humidity Wind Precip. Elev Updated Type